sensor_id;sensor_type;location;lat;lon;timestamp;P1;durP1;ratioP1;P2;durP2;ratioP2
27839;SDS011;15207;42.182;24.308;2023-03-12T00:00:47;2.40;;;1.23;;
27839;SDS011;15207;42.182;24.308;2023-03-12T00:03:13;2.25;;;1.20;;
27839;SDS011;15207;42.182;24.308;2023-03-12T00:05:39;1.90;;;1.30;;
27839;SDS011;15207;42.182;24.308;2023-03-12T00:10:31;2.30;;;1.50;;
27839;SDS011;15207;42.182;24.308;2023-03-12T00:12:57;2.65;;;1.60;;
27839;SDS011;15207;42.182;24.308;2023-03-12T00:15:22;6.60;;;1.60;;
27839;SDS011;15207;42.182;24.308;2023-03-12T00:17:49;7.70;;;1.60;;
27839;SDS011;15207;42.182;24.308;2023-03-12T00:20:15;4.15;;;1.65;;
27839;SDS011;15207;42.182;24.308;2023-03-12T00:22:40;3.30;;;1.40;;
27839;SDS011;15207;42.182;24.308;2023-03-12T00:25:09;3.10;;;1.40;;
27839;SDS011;15207;42.182;24.308;2023-03-12T00:27:37;8.65;;;1.95;;
27839;SDS011;15207;42.182;24.308;2023-03-12T00:30:03;4.70;;;2.00;;
27839;SDS011;15207;42.182;24.308;2023-03-12T00:32:31;7.20;;;2.30;;
27839;SDS011;15207;42.182;24.308;2023-03-12T00:34:57;6.20;;;1.90;;
27839;SDS011;15207;42.182;24.308;2023-03-12T00:37:23;4.45;;;2.15;;
27839;SDS011;15207;42.182;24.308;2023-03-12T00:42:14;10.50;;;2.00;;
27839;SDS011;15207;42.182;24.308;2023-03-12T00:44:40;5.80;;;2.10;;
27839;SDS011;15207;42.182;24.308;2023-03-12T00:47:05;5.40;;;2.50;;
27839;SDS011;15207;42.182;24.308;2023-03-12T00:49:31;6.50;;;2.00;;
27839;SDS011;15207;42.182;24.308;2023-03-12T00:51:56;18.00;;;2.60;;
27839;SDS011;15207;42.182;24.308;2023-03-12T00:54:22;8.35;;;2.20;;
27839;SDS011;15207;42.182;24.308;2023-03-12T00:59:13;13.15;;;2.50;;
27839;SDS011;15207;42.182;24.308;2023-03-12T01:01:40;9.40;;;2.30;;
27839;SDS011;15207;42.182;24.308;2023-03-12T01:04:06;9.50;;;2.30;;
27839;SDS011;15207;42.182;24.308;2023-03-12T01:06:31;13.50;;;2.50;;
27839;SDS011;15207;42.182;24.308;2023-03-12T01:08:57;12.07;;;2.73;;
27839;SDS011;15207;42.182;24.308;2023-03-12T01:13:48;10.40;;;2.60;;
27839;SDS011;15207;42.182;24.308;2023-03-12T01:16:14;6.10;;;2.50;;
27839;SDS011;15207;42.182;24.308;2023-03-12T01:18:39;8.97;;;2.53;;
27839;SDS011;15207;42.182;24.308;2023-03-12T01:21:05;12.20;;;2.90;;
27839;SDS011;15207;42.182;24.308;2023-03-12T01:23:31;8.35;;;2.65;;
27839;SDS011;15207;42.182;24.308;2023-03-12T01:25:57;10.70;;;2.90;;
27839;SDS011;15207;42.182;24.308;2023-03-12T01:28:23;5.20;;;2.55;;
27839;SDS011;15207;42.182;24.308;2023-03-12T01:30:50;11.60;;;2.90;;
27839;SDS011;15207;42.182;24.308;2023-03-12T01:33:16;13.60;;;3.00;;
27839;SDS011;15207;42.182;24.308;2023-03-12T01:35:42;8.90;;;3.00;;
27839;SDS011;15207;42.182;24.308;2023-03-12T01:38:12;9.80;;;3.40;;
27839;SDS011;15207;42.182;24.308;2023-03-12T01:40:40;7.35;;;3.60;;
27839;SDS011;15207;42.182;24.308;2023-03-12T01:43:21;6.70;;;3.20;;
27839;SDS011;15207;42.182;24.308;2023-03-12T01:48:26;9.10;;;3.50;;
27839;SDS011;15207;42.182;24.308;2023-03-12T01:53:20;5.30;;;3.40;;
27839;SDS011;15207;42.182;24.308;2023-03-12T01:55:46;11.70;;;3.45;;
27839;SDS011;15207;42.182;24.308;2023-03-12T01:58:12;8.30;;;3.30;;
27839;SDS011;15207;42.182;24.308;2023-03-12T02:00:38;6.90;;;3.50;;
27839;SDS011;15207;42.182;24.308;2023-03-12T02:03:05;7.85;;;3.85;;
27839;SDS011;15207;42.182;24.308;2023-03-12T02:08:08;8.15;;;3.75;;
27839;SDS011;15207;42.182;24.308;2023-03-12T02:10:34;11.50;;;3.70;;
27839;SDS011;15207;42.182;24.308;2023-03-12T02:12:59;11.95;;;3.70;;
27839;SDS011;15207;42.182;24.308;2023-03-12T02:15:25;6.90;;;3.60;;
27839;SDS011;15207;42.182;24.308;2023-03-12T02:17:51;9.50;;;3.80;;
27839;SDS011;15207;42.182;24.308;2023-03-12T02:22:59;6.43;;;3.70;;
27839;SDS011;15207;42.182;24.308;2023-03-12T02:25:38;7.30;;;3.60;;
27839;SDS011;15207;42.182;24.308;2023-03-12T02:28:08;6.20;;;3.10;;
27839;SDS011;15207;42.182;24.308;2023-03-12T02:30:37;6.80;;;3.30;;
27839;SDS011;15207;42.182;24.308;2023-03-12T02:33:07;4.32;;;3.42;;
27839;SDS011;15207;42.182;24.308;2023-03-12T02:35:34;5.20;;;3.00;;
27839;SDS011;15207;42.182;24.308;2023-03-12T02:38:00;6.90;;;2.90;;
27839;SDS011;15207;42.182;24.308;2023-03-12T02:40:33;9.40;;;2.90;;
27839;SDS011;15207;42.182;24.308;2023-03-12T02:43:04;8.00;;;3.00;;
27839;SDS011;15207;42.182;24.308;2023-03-12T02:45:31;4.80;;;2.80;;
27839;SDS011;15207;42.182;24.308;2023-03-12T02:48:00;5.43;;;2.85;;
27839;SDS011;15207;42.182;24.308;2023-03-12T02:50:26;3.03;;;2.60;;
27839;SDS011;15207;42.182;24.308;2023-03-12T02:55:17;8.25;;;2.75;;
27839;SDS011;15207;42.182;24.308;2023-03-12T02:57:42;9.40;;;3.20;;
27839;SDS011;15207;42.182;24.308;2023-03-12T03:05:01;10.10;;;2.60;;
27839;SDS011;15207;42.182;24.308;2023-03-12T03:07:27;6.45;;;2.55;;
27839;SDS011;15207;42.182;24.308;2023-03-12T03:09:52;6.50;;;2.40;;
27839;SDS011;15207;42.182;24.308;2023-03-12T03:12:18;5.20;;;2.50;;
27839;SDS011;15207;42.182;24.308;2023-03-12T03:14:43;5.00;;;2.40;;
27839;SDS011;15207;42.182;24.308;2023-03-12T03:17:09;3.50;;;2.50;;
27839;SDS011;15207;42.182;24.308;2023-03-12T03:19:34;3.37;;;2.37;;
27839;SDS011;15207;42.182;24.308;2023-03-12T03:22:00;5.35;;;2.60;;
27839;SDS011;15207;42.182;24.308;2023-03-12T03:24:25;5.20;;;2.70;;
27839;SDS011;15207;42.182;24.308;2023-03-12T03:26:51;4.30;;;2.50;;
27839;SDS011;15207;42.182;24.308;2023-03-12T03:31:42;9.95;;;2.05;;
27839;SDS011;15207;42.182;24.308;2023-03-12T03:34:07;8.70;;;2.40;;
27839;SDS011;15207;42.182;24.308;2023-03-12T03:36:33;2.60;;;1.90;;
27839;SDS011;15207;42.182;24.308;2023-03-12T03:38:58;2.53;;;1.90;;
27839;SDS011;15207;42.182;24.308;2023-03-12T03:41:24;6.35;;;2.20;;
27839;SDS011;15207;42.182;24.308;2023-03-12T03:43:50;3.20;;;2.17;;
27839;SDS011;15207;42.182;24.308;2023-03-12T03:46:15;1.80;;;1.70;;
27839;SDS011;15207;42.182;24.308;2023-03-12T03:48:41;5.40;;;2.30;;
27839;SDS011;15207;42.182;24.308;2023-03-12T03:53:33;6.80;;;2.72;;
27839;SDS011;15207;42.182;24.308;2023-03-12T03:56:06;4.00;;;2.70;;
27839;SDS011;15207;42.182;24.308;2023-03-12T03:58:36;2.90;;;2.60;;
27839;SDS011;15207;42.182;24.308;2023-03-12T04:03:27;4.45;;;2.10;;
27839;SDS011;15207;42.182;24.308;2023-03-12T04:06:00;4.50;;;1.90;;
27839;SDS011;15207;42.182;24.308;2023-03-12T04:10:53;5.25;;;2.10;;
27839;SDS011;15207;42.182;24.308;2023-03-12T04:13:19;2.85;;;1.60;;
27839;SDS011;15207;42.182;24.308;2023-03-12T04:15:46;7.85;;;2.20;;
27839;SDS011;15207;42.182;24.308;2023-03-12T04:18:12;10.95;;;2.05;;
27839;SDS011;15207;42.182;24.308;2023-03-12T04:23:03;5.97;;;2.20;;
27839;SDS011;15207;42.182;24.308;2023-03-12T04:25:29;3.10;;;1.60;;
27839;SDS011;15207;42.182;24.308;2023-03-12T04:27:55;4.75;;;2.15;;
27839;SDS011;15207;42.182;24.308;2023-03-12T04:30:20;3.10;;;2.30;;
27839;SDS011;15207;42.182;24.308;2023-03-12T04:32:46;5.70;;;2.00;;
27839;SDS011;15207;42.182;24.308;2023-03-12T04:35:12;3.25;;;2.15;;
27839;SDS011;15207;42.182;24.308;2023-03-12T04:37:37;1.90;;;1.60;;
27839;SDS011;15207;42.182;24.308;2023-03-12T04:40:03;4.10;;;1.90;;
27839;SDS011;15207;42.182;24.308;2023-03-12T04:45:00;3.60;;;1.90;;
27839;SDS011;15207;42.182;24.308;2023-03-12T04:47:26;2.70;;;1.70;;
27839;SDS011;15207;42.182;24.308;2023-03-12T04:49:52;4.50;;;1.90;;
27839;SDS011;15207;42.182;24.308;2023-03-12T04:52:17;2.95;;;2.05;;
27839;SDS011;15207;42.182;24.308;2023-03-12T04:54:43;7.00;;;1.90;;
27839;SDS011;15207;42.182;24.308;2023-03-12T04:57:09;4.87;;;1.60;;
27839;SDS011;15207;42.182;24.308;2023-03-12T04:59:34;4.00;;;1.50;;
27839;SDS011;15207;42.182;24.308;2023-03-12T05:02:00;1.60;;;1.30;;
27839;SDS011;15207;42.182;24.308;2023-03-12T05:04:25;2.55;;;1.30;;
27839;SDS011;15207;42.182;24.308;2023-03-12T05:06:51;1.80;;;1.40;;
27839;SDS011;15207;42.182;24.308;2023-03-12T05:09:17;4.40;;;1.40;;
27839;SDS011;15207;42.182;24.308;2023-03-12T05:11:42;1.90;;;1.40;;
27839;SDS011;15207;42.182;24.308;2023-03-12T05:14:09;2.00;;;1.40;;
27839;SDS011;15207;42.182;24.308;2023-03-12T05:16:35;1.75;;;1.30;;
27839;SDS011;15207;42.182;24.308;2023-03-12T05:19:01;2.00;;;1.35;;
27839;SDS011;15207;42.182;24.308;2023-03-12T05:21:28;3.20;;;1.30;;
27839;SDS011;15207;42.182;24.308;2023-03-12T05:23:54;1.40;;;1.30;;
27839;SDS011;15207;42.182;24.308;2023-03-12T05:26:22;3.40;;;1.55;;
27839;SDS011;15207;42.182;24.308;2023-03-12T05:31:16;1.63;;;1.20;;
27839;SDS011;15207;42.182;24.308;2023-03-12T05:33:42;4.20;;;1.60;;
27839;SDS011;15207;42.182;24.308;2023-03-12T05:36:08;2.40;;;1.20;;
27839;SDS011;15207;42.182;24.308;2023-03-12T05:38:34;2.15;;;1.40;;
27839;SDS011;15207;42.182;24.308;2023-03-12T05:41:00;2.70;;;1.35;;
27839;SDS011;15207;42.182;24.308;2023-03-12T05:43:26;3.75;;;1.50;;
27839;SDS011;15207;42.182;24.308;2023-03-12T05:45:52;3.35;;;1.10;;
27839;SDS011;15207;42.182;24.308;2023-03-12T05:48:18;1.65;;;1.27;;
27839;SDS011;15207;42.182;24.308;2023-03-12T05:50:44;5.90;;;1.10;;
27839;SDS011;15207;42.182;24.308;2023-03-12T05:53:10;4.75;;;1.30;;
27839;SDS011;15207;42.182;24.308;2023-03-12T05:55:36;3.80;;;0.90;;
27839;SDS011;15207;42.182;24.308;2023-03-12T05:58:11;4.60;;;1.50;;
27839;SDS011;15207;42.182;24.308;2023-03-12T06:00:39;2.60;;;1.10;;
27839;SDS011;15207;42.182;24.308;2023-03-12T06:03:06;11.20;;;1.40;;
27839;SDS011;15207;42.182;24.308;2023-03-12T06:05:33;2.10;;;1.20;;
27839;SDS011;15207;42.182;24.308;2023-03-12T06:08:00;3.05;;;1.30;;
27839;SDS011;15207;42.182;24.308;2023-03-12T06:10:27;6.05;;;1.50;;
27839;SDS011;15207;42.182;24.308;2023-03-12T06:12:53;2.90;;;0.90;;
27839;SDS011;15207;42.182;24.308;2023-03-12T06:15:18;6.95;;;1.40;;
27839;SDS011;15207;42.182;24.308;2023-03-12T06:17:44;1.85;;;1.10;;
27839;SDS011;15207;42.182;24.308;2023-03-12T06:20:10;2.40;;;1.25;;
27839;SDS011;15207;42.182;24.308;2023-03-12T06:22:36;2.30;;;1.00;;
27839;SDS011;15207;42.182;24.308;2023-03-12T06:25:02;2.45;;;0.95;;
27839;SDS011;15207;42.182;24.308;2023-03-12T06:27:28;2.55;;;1.00;;
27839;SDS011;15207;42.182;24.308;2023-03-12T06:29:54;1.35;;;1.00;;
27839;SDS011;15207;42.182;24.308;2023-03-12T06:32:19;1.90;;;0.70;;
27839;SDS011;15207;42.182;24.308;2023-03-12T06:34:45;1.60;;;1.20;;
27839;SDS011;15207;42.182;24.308;2023-03-12T06:37:10;1.60;;;1.20;;
27839;SDS011;15207;42.182;24.308;2023-03-12T06:39:36;2.03;;;0.88;;
27839;SDS011;15207;42.182;24.308;2023-03-12T06:42:03;3.75;;;1.00;;
27839;SDS011;15207;42.182;24.308;2023-03-12T06:44:29;6.70;;;1.10;;
27839;SDS011;15207;42.182;24.308;2023-03-12T06:46:54;2.70;;;1.10;;
27839;SDS011;15207;42.182;24.308;2023-03-12T06:49:22;3.20;;;1.10;;
27839;SDS011;15207;42.182;24.308;2023-03-12T06:54:13;2.40;;;1.20;;
27839;SDS011;15207;42.182;24.308;2023-03-12T06:56:39;2.25;;;0.93;;
27839;SDS011;15207;42.182;24.308;2023-03-12T06:59:04;1.45;;;1.10;;
27839;SDS011;15207;42.182;24.308;2023-03-12T07:01:30;2.50;;;1.30;;
27839;SDS011;15207;42.182;24.308;2023-03-12T07:03:56;2.20;;;1.20;;
27839;SDS011;15207;42.182;24.308;2023-03-12T07:06:22;1.60;;;1.00;;
27839;SDS011;15207;42.182;24.308;2023-03-12T07:08:48;2.40;;;1.10;;
27839;SDS011;15207;42.182;24.308;2023-03-12T07:11:14;1.80;;;1.05;;
27839;SDS011;15207;42.182;24.308;2023-03-12T07:13:40;4.45;;;0.95;;
27839;SDS011;15207;42.182;24.308;2023-03-12T07:18:31;1.30;;;1.10;;
27839;SDS011;15207;42.182;24.308;2023-03-12T07:20:57;1.55;;;0.90;;
27839;SDS011;15207;42.182;24.308;2023-03-12T07:23:23;1.90;;;0.80;;
27839;SDS011;15207;42.182;24.308;2023-03-12T07:25:49;2.10;;;1.10;;
27839;SDS011;15207;42.182;24.308;2023-03-12T07:28:15;1.35;;;0.80;;
27839;SDS011;15207;42.182;24.308;2023-03-12T07:30:41;3.90;;;1.10;;
27839;SDS011;15207;42.182;24.308;2023-03-12T07:33:09;2.13;;;1.17;;
27839;SDS011;15207;42.182;24.308;2023-03-12T07:35:36;2.10;;;1.20;;
27839;SDS011;15207;42.182;24.308;2023-03-12T07:38:05;2.00;;;0.95;;
27839;SDS011;15207;42.182;24.308;2023-03-12T07:40:31;2.25;;;0.90;;
27839;SDS011;15207;42.182;24.308;2023-03-12T07:42:57;3.15;;;1.30;;
27839;SDS011;15207;42.182;24.308;2023-03-12T07:47:48;1.80;;;1.20;;
27839;SDS011;15207;42.182;24.308;2023-03-12T07:50:15;1.95;;;1.15;;
27839;SDS011;15207;42.182;24.308;2023-03-12T07:52:41;1.90;;;1.33;;
27839;SDS011;15207;42.182;24.308;2023-03-12T07:55:07;2.30;;;1.60;;
27839;SDS011;15207;42.182;24.308;2023-03-12T07:57:34;4.70;;;1.20;;
27839;SDS011;15207;42.182;24.308;2023-03-12T08:00:00;1.90;;;1.40;;
27839;SDS011;15207;42.182;24.308;2023-03-12T08:02:26;1.45;;;1.20;;
27839;SDS011;15207;42.182;24.308;2023-03-12T08:04:51;4.60;;;1.40;;
27839;SDS011;15207;42.182;24.308;2023-03-12T08:07:17;6.05;;;1.30;;
27839;SDS011;15207;42.182;24.308;2023-03-12T08:09:42;3.53;;;1.47;;
27839;SDS011;15207;42.182;24.308;2023-03-12T08:12:08;3.50;;;1.50;;
27839;SDS011;15207;42.182;24.308;2023-03-12T08:14:34;4.60;;;1.30;;
27839;SDS011;15207;42.182;24.308;2023-03-12T08:17:00;2.30;;;1.10;;
27839;SDS011;15207;42.182;24.308;2023-03-12T08:19:26;1.50;;;1.30;;
27839;SDS011;15207;42.182;24.308;2023-03-12T08:21:52;2.80;;;1.45;;
27839;SDS011;15207;42.182;24.308;2023-03-12T08:24:19;5.05;;;1.30;;
27839;SDS011;15207;42.182;24.308;2023-03-12T08:26:45;1.90;;;1.30;;
27839;SDS011;15207;42.182;24.308;2023-03-12T08:29:11;2.93;;;1.37;;
27839;SDS011;15207;42.182;24.308;2023-03-12T08:31:37;6.40;;;1.30;;
27839;SDS011;15207;42.182;24.308;2023-03-12T08:34:03;7.90;;;1.80;;
27839;SDS011;15207;42.182;24.308;2023-03-12T08:36:28;3.65;;;1.55;;
27839;SDS011;15207;42.182;24.308;2023-03-12T08:38:54;4.55;;;1.92;;
27839;SDS011;15207;42.182;24.308;2023-03-12T08:41:20;2.00;;;1.10;;
27839;SDS011;15207;42.182;24.308;2023-03-12T08:43:45;3.03;;;1.30;;
27839;SDS011;15207;42.182;24.308;2023-03-12T08:46:11;2.30;;;1.10;;
27839;SDS011;15207;42.182;24.308;2023-03-12T08:53:30;3.63;;;1.60;;
27839;SDS011;15207;42.182;24.308;2023-03-12T08:55:56;1.65;;;1.20;;
27839;SDS011;15207;42.182;24.308;2023-03-12T08:58:22;4.15;;;1.70;;
27839;SDS011;15207;42.182;24.308;2023-03-12T09:00:50;4.90;;;1.80;;
27839;SDS011;15207;42.182;24.308;2023-03-12T09:03:15;7.50;;;3.30;;
27839;SDS011;15207;42.182;24.308;2023-03-12T09:05:42;3.70;;;2.30;;
27839;SDS011;15207;42.182;24.308;2023-03-12T09:08:08;3.10;;;1.50;;
27839;SDS011;15207;42.182;24.308;2023-03-12T09:10:35;1.85;;;1.20;;
27839;SDS011;15207;42.182;24.308;2023-03-12T09:13:00;4.37;;;1.80;;
27839;SDS011;15207;42.182;24.308;2023-03-12T09:17:52;3.75;;;1.30;;
27839;SDS011;15207;42.182;24.308;2023-03-12T09:20:19;3.15;;;1.45;;
27839;SDS011;15207;42.182;24.308;2023-03-12T09:22:46;2.85;;;1.30;;
27839;SDS011;15207;42.182;24.308;2023-03-12T09:25:12;4.90;;;1.60;;
27839;SDS011;15207;42.182;24.308;2023-03-12T09:27:42;2.20;;;1.50;;
27839;SDS011;15207;42.182;24.308;2023-03-12T09:30:11;3.20;;;1.40;;
27839;SDS011;15207;42.182;24.308;2023-03-12T09:32:42;5.70;;;1.60;;
27839;SDS011;15207;42.182;24.308;2023-03-12T09:35:10;1.60;;;1.20;;
27839;SDS011;15207;42.182;24.308;2023-03-12T09:37:37;4.40;;;2.40;;
27839;SDS011;15207;42.182;24.308;2023-03-12T09:45:10;2.78;;;1.33;;
27839;SDS011;15207;42.182;24.308;2023-03-12T09:51:00;2.45;;;1.50;;
27839;SDS011;15207;42.182;24.308;2023-03-12T09:53:32;2.95;;;1.20;;
27839;SDS011;15207;42.182;24.308;2023-03-12T09:58:45;4.55;;;1.55;;
27839;SDS011;15207;42.182;24.308;2023-03-12T10:01:22;3.05;;;1.55;;
27839;SDS011;15207;42.182;24.308;2023-03-12T10:09:55;2.90;;;1.40;;
27839;SDS011;15207;42.182;24.308;2023-03-12T10:12:52;2.88;;;1.33;;
27839;SDS011;15207;42.182;24.308;2023-03-12T10:18:25;3.00;;;1.30;;
27839;SDS011;15207;42.182;24.308;2023-03-12T10:21:16;3.95;;;1.60;;
27839;SDS011;15207;42.182;24.308;2023-03-12T10:26:45;4.40;;;1.60;;
27839;SDS011;15207;42.182;24.308;2023-03-12T10:29:26;2.10;;;1.70;;
27839;SDS011;15207;42.182;24.308;2023-03-12T10:34:42;1.75;;;1.30;;
27839;SDS011;15207;42.182;24.308;2023-03-12T10:37:21;2.55;;;1.45;;
27839;SDS011;15207;42.182;24.308;2023-03-12T10:39:50;7.40;;;1.70;;
27839;SDS011;15207;42.182;24.308;2023-03-12T10:42:18;2.10;;;1.40;;
27839;SDS011;15207;42.182;24.308;2023-03-12T10:44:46;8.50;;;1.70;;
27839;SDS011;15207;42.182;24.308;2023-03-12T10:47:37;2.40;;;1.55;;
27839;SDS011;15207;42.182;24.308;2023-03-12T10:50:13;3.20;;;1.53;;
27839;SDS011;15207;42.182;24.308;2023-03-12T10:52:40;3.55;;;1.50;;
27839;SDS011;15207;42.182;24.308;2023-03-12T10:55:10;5.57;;;1.80;;
27839;SDS011;15207;42.182;24.308;2023-03-12T10:57:43;2.50;;;1.50;;
27839;SDS011;15207;42.182;24.308;2023-03-12T11:00:09;2.00;;;1.20;;
27839;SDS011;15207;42.182;24.308;2023-03-12T11:02:46;2.60;;;1.40;;
27839;SDS011;15207;42.182;24.308;2023-03-12T11:05:46;3.10;;;1.70;;
27839;SDS011;15207;42.182;24.308;2023-03-12T11:10:53;3.00;;;1.60;;
27839;SDS011;15207;42.182;24.308;2023-03-12T11:15:46;4.35;;;1.70;;
27839;SDS011;15207;42.182;24.308;2023-03-12T11:23:39;4.30;;;1.80;;
27839;SDS011;15207;42.182;24.308;2023-03-12T11:26:18;2.70;;;1.50;;
27839;SDS011;15207;42.182;24.308;2023-03-12T11:31:22;5.27;;;1.50;;
27839;SDS011;15207;42.182;24.308;2023-03-12T11:33:51;2.30;;;1.50;;
27839;SDS011;15207;42.182;24.308;2023-03-12T11:58:25;2.40;;;1.37;;
27839;SDS011;15207;42.182;24.308;2023-03-12T12:31:46;3.00;;;1.80;;
27839;SDS011;15207;42.182;24.308;2023-03-12T12:42:46;5.95;;;1.60;;
27839;SDS011;15207;42.182;24.308;2023-03-12T12:45:16;2.70;;;1.45;;
27839;SDS011;15207;42.182;24.308;2023-03-12T12:47:46;3.75;;;1.60;;
27839;SDS011;15207;42.182;24.308;2023-03-12T12:50:19;2.40;;;1.80;;
27839;SDS011;15207;42.182;24.308;2023-03-12T12:52:50;3.50;;;1.70;;
27839;SDS011;15207;42.182;24.308;2023-03-12T12:55:31;1.95;;;1.40;;
27839;SDS011;15207;42.182;24.308;2023-03-12T12:58:05;3.08;;;1.50;;
27839;SDS011;15207;42.182;24.308;2023-03-12T13:03:03;3.05;;;1.85;;
27839;SDS011;15207;42.182;24.308;2023-03-12T13:08:02;6.70;;;1.80;;
27839;SDS011;15207;42.182;24.308;2023-03-12T13:12:57;4.40;;;1.93;;
27839;SDS011;15207;42.182;24.308;2023-03-12T13:18:04;2.55;;;1.70;;
27839;SDS011;15207;42.182;24.308;2023-03-12T13:45:32;3.30;;;1.30;;
27839;SDS011;15207;42.182;24.308;2023-03-12T13:50:39;2.60;;;1.70;;
27839;SDS011;15207;42.182;24.308;2023-03-12T13:53:19;3.00;;;1.45;;
27839;SDS011;15207;42.182;24.308;2023-03-12T13:56:10;3.15;;;1.40;;
27839;SDS011;15207;42.182;24.308;2023-03-12T14:01:39;1.90;;;1.20;;
27839;SDS011;15207;42.182;24.308;2023-03-12T14:04:14;4.53;;;1.60;;
27839;SDS011;15207;42.182;24.308;2023-03-12T14:10:05;1.70;;;1.13;;
27839;SDS011;15207;42.182;24.308;2023-03-12T14:12:47;2.10;;;1.50;;
27839;SDS011;15207;42.182;24.308;2023-03-12T14:18:27;2.10;;;1.30;;
27839;SDS011;15207;42.182;24.308;2023-03-12T14:20:58;1.75;;;1.20;;
27839;SDS011;15207;42.182;24.308;2023-03-12T14:23:37;1.67;;;1.30;;
27839;SDS011;15207;42.182;24.308;2023-03-12T14:26:24;2.15;;;1.50;;
27839;SDS011;15207;42.182;24.308;2023-03-12T14:28:57;2.90;;;1.50;;
27839;SDS011;15207;42.182;24.308;2023-03-12T14:31:26;2.50;;;1.60;;
27839;SDS011;15207;42.182;24.308;2023-03-12T14:36:25;2.10;;;1.60;;
27839;SDS011;15207;42.182;24.308;2023-03-12T14:38:59;1.90;;;1.10;;
27839;SDS011;15207;42.182;24.308;2023-03-12T14:41:34;4.90;;;1.80;;
27839;SDS011;15207;42.182;24.308;2023-03-12T14:44:23;2.80;;;1.60;;
27839;SDS011;15207;42.182;24.308;2023-03-12T14:46:58;3.10;;;1.60;;
27839;SDS011;15207;42.182;24.308;2023-03-12T14:49:27;3.45;;;1.70;;
27839;SDS011;15207;42.182;24.308;2023-03-12T14:51:54;1.90;;;1.30;;
27839;SDS011;15207;42.182;24.308;2023-03-12T14:54:22;2.30;;;1.40;;
27839;SDS011;15207;42.182;24.308;2023-03-12T14:56:49;2.00;;;1.70;;
27839;SDS011;15207;42.182;24.308;2023-03-12T14:59:22;4.60;;;1.60;;
27839;SDS011;15207;42.182;24.308;2023-03-12T15:02:00;6.40;;;1.70;;
27839;SDS011;15207;42.182;24.308;2023-03-12T15:04:35;5.27;;;1.70;;
27839;SDS011;15207;42.182;24.308;2023-03-12T15:07:02;2.00;;;1.40;;
27839;SDS011;15207;42.182;24.308;2023-03-12T15:11:59;5.40;;;1.90;;
27839;SDS011;15207;42.182;24.308;2023-03-12T15:14:27;3.10;;;1.60;;
27839;SDS011;15207;42.182;24.308;2023-03-12T15:19:25;5.10;;;1.35;;
27839;SDS011;15207;42.182;24.308;2023-03-12T15:24:20;3.40;;;1.80;;
27839;SDS011;15207;42.182;24.308;2023-03-12T15:26:46;2.00;;;1.70;;
27839;SDS011;15207;42.182;24.308;2023-03-12T15:42:48;2.40;;;1.50;;
27839;SDS011;15207;42.182;24.308;2023-03-12T15:45:21;3.50;;;1.50;;
27839;SDS011;15207;42.182;24.308;2023-03-12T15:47:50;3.40;;;1.40;;
27839;SDS011;15207;42.182;24.308;2023-03-12T15:50:22;3.15;;;1.55;;
27839;SDS011;15207;42.182;24.308;2023-03-12T15:55:38;2.45;;;1.45;;
27839;SDS011;15207;42.182;24.308;2023-03-12T16:00:51;2.75;;;1.65;;
27839;SDS011;15207;42.182;24.308;2023-03-12T16:03:17;3.40;;;1.60;;
27839;SDS011;15207;42.182;24.308;2023-03-12T16:05:44;3.35;;;1.80;;
27839;SDS011;15207;42.182;24.308;2023-03-12T16:10:53;3.15;;;1.60;;
27839;SDS011;15207;42.182;24.308;2023-03-12T16:13:20;2.40;;;1.40;;
27839;SDS011;15207;42.182;24.308;2023-03-12T16:18:18;2.75;;;1.70;;
27839;SDS011;15207;42.182;24.308;2023-03-12T16:23:10;10.10;;;2.50;;
27839;SDS011;15207;42.182;24.308;2023-03-12T16:25:36;3.40;;;1.90;;
27839;SDS011;15207;42.182;24.308;2023-03-12T16:28:03;5.80;;;1.90;;
27839;SDS011;15207;42.182;24.308;2023-03-12T16:30:31;5.20;;;1.90;;
27839;SDS011;15207;42.182;24.308;2023-03-12T16:33:00;3.90;;;2.20;;
27839;SDS011;15207;42.182;24.308;2023-03-12T16:35:28;5.25;;;1.70;;
27839;SDS011;15207;42.182;24.308;2023-03-12T16:37:56;3.90;;;1.70;;
27839;SDS011;15207;42.182;24.308;2023-03-12T16:40:22;3.20;;;1.60;;
27839;SDS011;15207;42.182;24.308;2023-03-12T16:42:51;5.70;;;2.20;;
27839;SDS011;15207;42.182;24.308;2023-03-12T16:47:45;3.60;;;1.90;;
27839;SDS011;15207;42.182;24.308;2023-03-12T16:52:46;3.20;;;2.25;;
27839;SDS011;15207;42.182;24.308;2023-03-12T16:55:15;4.50;;;2.35;;
27839;SDS011;15207;42.182;24.308;2023-03-12T16:57:48;8.15;;;2.85;;
27839;SDS011;15207;42.182;24.308;2023-03-12T17:00:27;2.50;;;2.10;;
27839;SDS011;15207;42.182;24.308;2023-03-12T17:02:54;4.05;;;1.95;;
27839;SDS011;15207;42.182;24.308;2023-03-12T17:05:27;3.50;;;2.20;;
27839;SDS011;15207;42.182;24.308;2023-03-12T17:07:53;3.85;;;2.15;;
27839;SDS011;15207;42.182;24.308;2023-03-12T17:10:20;4.90;;;1.90;;
27839;SDS011;15207;42.182;24.308;2023-03-12T17:12:48;6.35;;;2.45;;
27839;SDS011;15207;42.182;24.308;2023-03-12T17:15:24;6.07;;;2.57;;
27839;SDS011;15207;42.182;24.308;2023-03-12T17:17:52;3.85;;;2.00;;
27839;SDS011;15207;42.182;24.308;2023-03-12T17:20:23;6.65;;;1.85;;
27839;SDS011;15207;42.182;24.308;2023-03-12T17:22:54;3.70;;;2.30;;
27839;SDS011;15207;42.182;24.308;2023-03-12T17:25:22;2.95;;;1.80;;
27839;SDS011;15207;42.182;24.308;2023-03-12T17:27:50;3.80;;;2.10;;
27839;SDS011;15207;42.182;24.308;2023-03-12T17:32:42;6.57;;;1.90;;
27839;SDS011;15207;42.182;24.308;2023-03-12T17:35:07;3.60;;;1.90;;
27839;SDS011;15207;42.182;24.308;2023-03-12T17:37:34;4.75;;;1.80;;
27839;SDS011;15207;42.182;24.308;2023-03-12T17:40:00;3.80;;;1.60;;
27839;SDS011;15207;42.182;24.308;2023-03-12T17:42:31;6.50;;;2.40;;
27839;SDS011;15207;42.182;24.308;2023-03-12T17:44:58;4.70;;;1.90;;
27839;SDS011;15207;42.182;24.308;2023-03-12T17:47:25;2.50;;;1.80;;
27839;SDS011;15207;42.182;24.308;2023-03-12T17:49:51;2.45;;;1.65;;
27839;SDS011;15207;42.182;24.308;2023-03-12T17:52:17;4.60;;;1.90;;
27839;SDS011;15207;42.182;24.308;2023-03-12T17:54:42;4.45;;;3.00;;
27839;SDS011;15207;42.182;24.308;2023-03-12T17:57:08;14.80;;;6.30;;
27839;SDS011;15207;42.182;24.308;2023-03-12T17:59:33;26.40;;;11.80;;
27839;SDS011;15207;42.182;24.308;2023-03-12T18:01:59;21.70;;;10.17;;
27839;SDS011;15207;42.182;24.308;2023-03-12T18:04:24;19.40;;;8.00;;
27839;SDS011;15207;42.182;24.308;2023-03-12T18:06:50;22.70;;;10.60;;
27839;SDS011;15207;42.182;24.308;2023-03-12T18:09:16;16.60;;;8.90;;
27839;SDS011;15207;42.182;24.308;2023-03-12T18:14:06;13.80;;;5.90;;
27839;SDS011;15207;42.182;24.308;2023-03-12T18:16:32;13.90;;;5.80;;
27839;SDS011;15207;42.182;24.308;2023-03-12T18:18:58;8.45;;;4.60;;
27839;SDS011;15207;42.182;24.308;2023-03-12T18:21:23;8.20;;;4.10;;
27839;SDS011;15207;42.182;24.308;2023-03-12T18:23:49;8.15;;;3.55;;
27839;SDS011;15207;42.182;24.308;2023-03-12T18:26:15;6.10;;;3.00;;
27839;SDS011;15207;42.182;24.308;2023-03-12T18:28:40;5.60;;;2.80;;
27839;SDS011;15207;42.182;24.308;2023-03-12T18:31:06;6.40;;;3.25;;
27839;SDS011;15207;42.182;24.308;2023-03-12T18:33:32;7.30;;;3.55;;
27839;SDS011;15207;42.182;24.308;2023-03-12T18:36:00;7.50;;;3.50;;
27839;SDS011;15207;42.182;24.308;2023-03-12T18:38:26;6.25;;;2.95;;
27839;SDS011;15207;42.182;24.308;2023-03-12T18:41:00;5.85;;;3.00;;
27839;SDS011;15207;42.182;24.308;2023-03-12T18:43:27;8.35;;;2.95;;
27839;SDS011;15207;42.182;24.308;2023-03-12T18:45:54;4.87;;;2.80;;
27839;SDS011;15207;42.182;24.308;2023-03-12T18:48:19;4.90;;;2.80;;
27839;SDS011;15207;42.182;24.308;2023-03-12T18:50:45;5.40;;;2.50;;